sensor_id;sensor_type;location;lat;lon;timestamp;P1;durP1;ratioP1;P2;durP2;ratioP2
23588;SDS011;11972;48.078;11.876;2023-03-01T00:01:27;14.82;;;12.45;;
23588;SDS011;11972;48.078;11.876;2023-03-01T00:05:29;14.77;;;11.43;;
23588;SDS011;11972;48.078;11.876;2023-03-01T00:09:29;19.48;;;13.23;;
23588;SDS011;11972;48.078;11.876;2023-03-01T00:13:30;15.13;;;11.65;;
23588;SDS011;11972;48.078;11.876;2023-03-01T00:17:30;15.02;;;12.25;;
23588;SDS011;11972;48.078;11.876;2023-03-01T00:21:31;17.77;;;12.27;;
23588;SDS011;11972;48.078;11.876;2023-03-01T00:25:31;14.20;;;12.30;;
23588;SDS011;11972;48.078;11.876;2023-03-01T00:29:31;14.90;;;11.85;;
23588;SDS011;11972;48.078;11.876;2023-03-01T00:33:32;15.40;;;11.85;;
23588;SDS011;11972;48.078;11.876;2023-03-01T00:37:33;17.38;;;12.70;;
23588;SDS011;11972;48.078;11.876;2023-03-01T00:41:33;14.35;;;11.80;;
23588;SDS011;11972;48.078;11.876;2023-03-01T00:45:34;16.52;;;11.60;;
23588;SDS011;11972;48.078;11.876;2023-03-01T00:49:34;16.63;;;13.45;;
23588;SDS011;11972;48.078;11.876;2023-03-01T00:53:35;14.35;;;12.18;;
23588;SDS011;11972;48.078;11.876;2023-03-01T00:57:36;16.02;;;12.45;;
23588;SDS011;11972;48.078;11.876;2023-03-01T01:01:36;14.98;;;12.27;;
23588;SDS011;11972;48.078;11.876;2023-03-01T01:05:36;17.67;;;12.63;;
23588;SDS011;11972;48.078;11.876;2023-03-01T01:09:37;18.02;;;12.60;;
23588;SDS011;11972;48.078;11.876;2023-03-01T01:13:38;19.70;;;12.98;;
23588;SDS011;11972;48.078;11.876;2023-03-01T01:17:39;15.25;;;11.77;;
23588;SDS011;11972;48.078;11.876;2023-03-01T01:21:40;13.48;;;11.88;;
23588;SDS011;11972;48.078;11.876;2023-03-01T01:25:43;14.57;;;12.27;;
23588;SDS011;11972;48.078;11.876;2023-03-01T01:29:43;14.68;;;12.02;;
23588;SDS011;11972;48.078;11.876;2023-03-01T01:33:43;17.00;;;12.38;;
23588;SDS011;11972;48.078;11.876;2023-03-01T01:37:44;16.80;;;11.93;;
23588;SDS011;11972;48.078;11.876;2023-03-01T01:41:44;16.58;;;12.57;;
23588;SDS011;11972;48.078;11.876;2023-03-01T01:45:44;15.02;;;12.18;;
23588;SDS011;11972;48.078;11.876;2023-03-01T01:49:52;15.25;;;12.10;;
23588;SDS011;11972;48.078;11.876;2023-03-01T01:53:56;17.75;;;13.30;;
23588;SDS011;11972;48.078;11.876;2023-03-01T01:58:02;14.80;;;11.70;;
23588;SDS011;11972;48.078;11.876;2023-03-01T02:02:04;16.02;;;12.32;;
23588;SDS011;11972;48.078;11.876;2023-03-01T02:06:19;14.55;;;12.30;;
23588;SDS011;11972;48.078;11.876;2023-03-01T02:10:28;16.77;;;13.07;;
23588;SDS011;11972;48.078;11.876;2023-03-01T02:14:31;16.15;;;12.50;;
23588;SDS011;11972;48.078;11.876;2023-03-01T02:18:32;13.32;;;11.60;;
23588;SDS011;11972;48.078;11.876;2023-03-01T02:22:33;14.40;;;12.07;;
23588;SDS011;11972;48.078;11.876;2023-03-01T02:26:38;15.07;;;12.35;;
23588;SDS011;11972;48.078;11.876;2023-03-01T02:35:05;14.10;;;11.70;;
23588;SDS011;11972;48.078;11.876;2023-03-01T02:39:07;13.85;;;11.88;;
23588;SDS011;11972;48.078;11.876;2023-03-01T02:43:14;15.15;;;11.52;;
23588;SDS011;11972;48.078;11.876;2023-03-01T02:47:14;15.35;;;11.98;;
23588;SDS011;11972;48.078;11.876;2023-03-01T02:55:21;14.77;;;12.95;;
23588;SDS011;11972;48.078;11.876;2023-03-01T02:59:22;14.82;;;12.18;;
23588;SDS011;11972;48.078;11.876;2023-03-01T03:03:27;14.82;;;12.10;;
23588;SDS011;11972;48.078;11.876;2023-03-01T03:07:27;14.30;;;11.95;;
23588;SDS011;11972;48.078;11.876;2023-03-01T03:11:27;14.80;;;11.38;;
23588;SDS011;11972;48.078;11.876;2023-03-01T03:15:28;16.38;;;11.98;;
23588;SDS011;11972;48.078;11.876;2023-03-01T03:19:29;14.63;;;11.80;;
23588;SDS011;11972;48.078;11.876;2023-03-01T03:23:29;17.77;;;13.77;;
23588;SDS011;11972;48.078;11.876;2023-03-01T03:27:30;14.98;;;12.75;;
23588;SDS011;11972;48.078;11.876;2023-03-01T03:31:31;16.20;;;12.98;;
23588;SDS011;11972;48.078;11.876;2023-03-01T03:35:33;15.20;;;13.23;;
23588;SDS011;11972;48.078;11.876;2023-03-01T03:39:38;17.58;;;12.75;;
23588;SDS011;11972;48.078;11.876;2023-03-01T03:43:39;16.85;;;12.45;;
23588;SDS011;11972;48.078;11.876;2023-03-01T03:47:41;16.95;;;12.57;;
23588;SDS011;11972;48.078;11.876;2023-03-01T03:51:41;15.32;;;12.20;;
23588;SDS011;11972;48.078;11.876;2023-03-01T03:55:41;15.60;;;12.60;;
23588;SDS011;11972;48.078;11.876;2023-03-01T03:59:42;16.33;;;13.20;;
23588;SDS011;11972;48.078;11.876;2023-03-01T04:03:42;15.50;;;12.57;;
23588;SDS011;11972;48.078;11.876;2023-03-01T04:07:46;15.75;;;12.75;;
23588;SDS011;11972;48.078;11.876;2023-03-01T04:11:46;15.40;;;12.23;;
23588;SDS011;11972;48.078;11.876;2023-03-01T04:15:50;16.85;;;12.70;;
23588;SDS011;11972;48.078;11.876;2023-03-01T04:19:51;14.45;;;12.43;;
23588;SDS011;11972;48.078;11.876;2023-03-01T04:23:52;15.43;;;13.05;;
23588;SDS011;11972;48.078;11.876;2023-03-01T04:27:52;15.18;;;12.98;;
23588;SDS011;11972;48.078;11.876;2023-03-01T04:31:52;16.55;;;13.10;;
23588;SDS011;11972;48.078;11.876;2023-03-01T04:35:53;15.27;;;12.23;;
23588;SDS011;11972;48.078;11.876;2023-03-01T04:39:53;18.13;;;13.63;;
23588;SDS011;11972;48.078;11.876;2023-03-01T04:43:53;18.60;;;13.15;;
23588;SDS011;11972;48.078;11.876;2023-03-01T04:47:54;17.63;;;13.57;;
23588;SDS011;11972;48.078;11.876;2023-03-01T04:51:54;17.45;;;13.20;;
23588;SDS011;11972;48.078;11.876;2023-03-01T04:55:55;15.98;;;13.13;;
23588;SDS011;11972;48.078;11.876;2023-03-01T04:59:56;17.83;;;12.85;;
23588;SDS011;11972;48.078;11.876;2023-03-01T05:03:56;19.38;;;13.48;;
23588;SDS011;11972;48.078;11.876;2023-03-01T05:08:06;20.17;;;14.05;;
23588;SDS011;11972;48.078;11.876;2023-03-01T05:12:07;18.15;;;13.48;;
23588;SDS011;11972;48.078;11.876;2023-03-01T05:16:08;17.35;;;13.52;;
23588;SDS011;11972;48.078;11.876;2023-03-01T05:20:12;16.98;;;12.43;;
23588;SDS011;11972;48.078;11.876;2023-03-01T05:24:12;16.23;;;12.70;;
23588;SDS011;11972;48.078;11.876;2023-03-01T05:28:13;17.95;;;13.02;;
23588;SDS011;11972;48.078;11.876;2023-03-01T05:32:14;15.82;;;12.88;;
23588;SDS011;11972;48.078;11.876;2023-03-01T05:36:15;16.70;;;12.98;;
23588;SDS011;11972;48.078;11.876;2023-03-01T05:40:16;19.42;;;13.60;;
23588;SDS011;11972;48.078;11.876;2023-03-01T05:44:21;19.27;;;13.50;;
23588;SDS011;11972;48.078;11.876;2023-03-01T05:48:22;17.73;;;13.55;;
23588;SDS011;11972;48.078;11.876;2023-03-01T05:52:22;16.25;;;12.93;;
23588;SDS011;11972;48.078;11.876;2023-03-01T05:56:23;18.95;;;13.95;;
23588;SDS011;11972;48.078;11.876;2023-03-01T06:00:23;18.60;;;14.13;;
23588;SDS011;11972;48.078;11.876;2023-03-01T06:04:23;17.67;;;13.13;;
23588;SDS011;11972;48.078;11.876;2023-03-01T06:08:24;17.27;;;13.68;;
23588;SDS011;11972;48.078;11.876;2023-03-01T06:12:29;18.35;;;13.70;;
23588;SDS011;11972;48.078;11.876;2023-03-01T06:16:31;19.95;;;14.65;;
23588;SDS011;11972;48.078;11.876;2023-03-01T06:20:31;16.90;;;13.07;;
23588;SDS011;11972;48.078;11.876;2023-03-01T06:24:31;20.25;;;14.60;;
23588;SDS011;11972;48.078;11.876;2023-03-01T06:28:33;21.08;;;13.95;;
23588;SDS011;11972;48.078;11.876;2023-03-01T06:32:33;18.38;;;13.63;;
23588;SDS011;11972;48.078;11.876;2023-03-01T06:36:33;17.98;;;13.73;;
23588;SDS011;11972;48.078;11.876;2023-03-01T06:40:34;22.95;;;14.35;;
23588;SDS011;11972;48.078;11.876;2023-03-01T06:44:35;19.52;;;14.40;;
23588;SDS011;11972;48.078;11.876;2023-03-01T06:48:36;19.80;;;13.93;;
23588;SDS011;11972;48.078;11.876;2023-03-01T06:52:36;17.88;;;13.48;;
23588;SDS011;11972;48.078;11.876;2023-03-01T06:56:36;16.55;;;13.15;;
23588;SDS011;11972;48.078;11.876;2023-03-01T07:00:37;17.58;;;13.30;;
23588;SDS011;11972;48.078;11.876;2023-03-01T07:04:40;20.15;;;14.65;;
23588;SDS011;11972;48.078;11.876;2023-03-01T07:08:40;20.17;;;14.10;;
23588;SDS011;11972;48.078;11.876;2023-03-01T07:12:41;20.10;;;14.20;;
23588;SDS011;11972;48.078;11.876;2023-03-01T07:16:41;20.08;;;14.93;;
23588;SDS011;11972;48.078;11.876;2023-03-01T07:20:41;17.80;;;13.43;;
23588;SDS011;11972;48.078;11.876;2023-03-01T07:24:42;17.80;;;13.57;;
23588;SDS011;11972;48.078;11.876;2023-03-01T07:28:42;20.30;;;15.70;;
23588;SDS011;11972;48.078;11.876;2023-03-01T07:32:43;18.88;;;14.02;;
23588;SDS011;11972;48.078;11.876;2023-03-01T07:36:43;17.92;;;13.38;;
23588;SDS011;11972;48.078;11.876;2023-03-01T07:40:45;21.35;;;14.40;;
23588;SDS011;11972;48.078;11.876;2023-03-01T07:44:45;16.50;;;13.25;;
23588;SDS011;11972;48.078;11.876;2023-03-01T07:48:45;20.48;;;14.88;;
23588;SDS011;11972;48.078;11.876;2023-03-01T07:52:46;20.35;;;14.50;;
23588;SDS011;11972;48.078;11.876;2023-03-01T07:56:48;17.65;;;13.88;;
23588;SDS011;11972;48.078;11.876;2023-03-01T08:00:48;20.13;;;14.98;;
23588;SDS011;11972;48.078;11.876;2023-03-01T08:04:48;18.33;;;13.57;;
23588;SDS011;11972;48.078;11.876;2023-03-01T08:08:49;19.92;;;14.70;;
23588;SDS011;11972;48.078;11.876;2023-03-01T08:12:50;20.52;;;14.55;;
23588;SDS011;11972;48.078;11.876;2023-03-01T08:16:53;22.52;;;15.20;;
23588;SDS011;11972;48.078;11.876;2023-03-01T08:20:54;19.90;;;13.98;;
23588;SDS011;11972;48.078;11.876;2023-03-01T08:24:55;21.05;;;14.23;;
23588;SDS011;11972;48.078;11.876;2023-03-01T08:28:55;22.33;;;16.38;;
23588;SDS011;11972;48.078;11.876;2023-03-01T08:32:56;19.15;;;14.73;;
23588;SDS011;11972;48.078;11.876;2023-03-01T08:36:56;18.83;;;13.65;;
23588;SDS011;11972;48.078;11.876;2023-03-01T08:40:59;19.35;;;15.18;;
23588;SDS011;11972;48.078;11.876;2023-03-01T08:45:00;20.98;;;15.07;;
23588;SDS011;11972;48.078;11.876;2023-03-01T08:49:00;19.38;;;14.40;;
23588;SDS011;11972;48.078;11.876;2023-03-01T08:53:04;21.00;;;14.82;;
23588;SDS011;11972;48.078;11.876;2023-03-01T08:57:04;19.85;;;15.88;;
23588;SDS011;11972;48.078;11.876;2023-03-01T09:01:11;16.75;;;14.27;;
23588;SDS011;11972;48.078;11.876;2023-03-01T09:05:14;19.48;;;14.90;;
23588;SDS011;11972;48.078;11.876;2023-03-01T09:09:16;23.63;;;15.40;;
23588;SDS011;11972;48.078;11.876;2023-03-01T09:13:17;18.45;;;14.80;;
23588;SDS011;11972;48.078;11.876;2023-03-01T09:17:17;17.08;;;14.68;;
23588;SDS011;11972;48.078;11.876;2023-03-01T09:21:18;20.23;;;14.52;;
23588;SDS011;11972;48.078;11.876;2023-03-01T09:25:20;21.20;;;14.95;;
23588;SDS011;11972;48.078;11.876;2023-03-01T09:29:21;19.80;;;15.70;;
23588;SDS011;11972;48.078;11.876;2023-03-01T09:33:21;21.83;;;16.17;;
23588;SDS011;11972;48.078;11.876;2023-03-01T09:37:21;20.85;;;15.25;;
23588;SDS011;11972;48.078;11.876;2023-03-01T09:46:05;18.20;;;14.70;;
23588;SDS011;11972;48.078;11.876;2023-03-01T09:50:16;20.40;;;15.07;;
23588;SDS011;11972;48.078;11.876;2023-03-01T09:54:18;19.67;;;15.00;;
23588;SDS011;11972;48.078;11.876;2023-03-01T10:02:44;16.77;;;13.80;;
23588;SDS011;11972;48.078;11.876;2023-03-01T10:10:55;18.15;;;13.48;;
23588;SDS011;11972;48.078;11.876;2023-03-01T10:15:04;16.80;;;14.43;;
23588;SDS011;11972;48.078;11.876;2023-03-01T10:19:12;20.83;;;17.10;;
23588;SDS011;11972;48.078;11.876;2023-03-01T10:23:34;19.00;;;16.17;;
23588;SDS011;11972;48.078;11.876;2023-03-01T10:27:38;18.63;;;15.25;;
23588;SDS011;11972;48.078;11.876;2023-03-01T10:31:44;19.63;;;15.02;;
23588;SDS011;11972;48.078;11.876;2023-03-01T10:35:47;18.60;;;15.32;;
23588;SDS011;11972;48.078;11.876;2023-03-01T10:44:08;20.33;;;16.63;;
23588;SDS011;11972;48.078;11.876;2023-03-01T10:48:46;21.02;;;15.98;;
23588;SDS011;11972;48.078;11.876;2023-03-01T10:53:16;21.35;;;15.27;;
23588;SDS011;11972;48.078;11.876;2023-03-01T10:57:29;18.55;;;14.00;;
23588;SDS011;11972;48.078;11.876;2023-03-01T11:01:32;19.33;;;14.43;;
23588;SDS011;11972;48.078;11.876;2023-03-01T11:05:35;20.02;;;15.75;;
23588;SDS011;11972;48.078;11.876;2023-03-01T11:09:35;20.58;;;15.88;;
23588;SDS011;11972;48.078;11.876;2023-03-01T11:14:39;22.15;;;16.60;;
23588;SDS011;11972;48.078;11.876;2023-03-01T11:18:19;19.35;;;16.00;;
23588;SDS011;11972;48.078;11.876;2023-03-01T11:22:20;22.55;;;17.10;;
23588;SDS011;11972;48.078;11.876;2023-03-01T11:26:22;23.10;;;16.17;;
23588;SDS011;11972;48.078;11.876;2023-03-01T11:35:41;22.63;;;17.30;;
23588;SDS011;11972;48.078;11.876;2023-03-01T11:39:28;23.88;;;16.95;;
23588;SDS011;11972;48.078;11.876;2023-03-01T11:57:20;20.63;;;16.70;;
23588;SDS011;11972;48.078;11.876;2023-03-01T12:18:45;20.58;;;16.70;;
23588;SDS011;11972;48.078;11.876;2023-03-01T12:27:15;21.20;;;16.45;;
23588;SDS011;11972;48.078;11.876;2023-03-01T12:31:40;21.20;;;17.77;;
23588;SDS011;11972;48.078;11.876;2023-03-01T12:36:29;22.33;;;16.38;;
23588;SDS011;11972;48.078;11.876;2023-03-01T12:40:21;19.35;;;16.42;;
23588;SDS011;11972;48.078;11.876;2023-03-01T12:49:14;20.50;;;17.83;;
23588;SDS011;11972;48.078;11.876;2023-03-01T12:53:28;20.10;;;16.58;;
23588;SDS011;11972;48.078;11.876;2023-03-01T12:57:34;20.45;;;15.73;;
23588;SDS011;11972;48.078;11.876;2023-03-01T13:06:00;20.40;;;16.30;;
23588;SDS011;11972;48.078;11.876;2023-03-01T13:18:32;23.02;;;18.63;;
23588;SDS011;11972;48.078;11.876;2023-03-01T13:22:33;25.70;;;19.27;;
23588;SDS011;11972;48.078;11.876;2023-03-01T13:26:39;24.00;;;19.25;;
23588;SDS011;11972;48.078;11.876;2023-03-01T13:35:47;23.20;;;18.70;;
23588;SDS011;11972;48.078;11.876;2023-03-01T13:39:47;22.53;;;17.20;;
23588;SDS011;11972;48.078;11.876;2023-03-01T13:43:48;21.13;;;16.63;;
23588;SDS011;11972;48.078;11.876;2023-03-01T13:47:50;21.95;;;17.45;;
23588;SDS011;11972;48.078;11.876;2023-03-01T13:51:54;21.00;;;17.60;;
23588;SDS011;11972;48.078;11.876;2023-03-01T13:55:55;22.02;;;17.80;;
23588;SDS011;11972;48.078;11.876;2023-03-01T14:00:00;23.17;;;16.90;;
23588;SDS011;11972;48.078;11.876;2023-03-01T14:04:01;20.65;;;17.52;;
23588;SDS011;11972;48.078;11.876;2023-03-01T14:08:04;20.25;;;16.83;;
23588;SDS011;11972;48.078;11.876;2023-03-01T14:21:12;19.55;;;17.30;;
23588;SDS011;11972;48.078;11.876;2023-03-01T14:25:31;23.08;;;16.30;;
23588;SDS011;11972;48.078;11.876;2023-03-01T14:29:34;20.38;;;16.45;;
23588;SDS011;11972;48.078;11.876;2023-03-01T14:33:36;17.50;;;15.38;;
23588;SDS011;11972;48.078;11.876;2023-03-01T14:37:37;18.80;;;16.60;;
23588;SDS011;11972;48.078;11.876;2023-03-01T14:41:37;19.10;;;16.98;;
23588;SDS011;11972;48.078;11.876;2023-03-01T14:45:37;18.83;;;15.90;;
23588;SDS011;11972;48.078;11.876;2023-03-01T14:49:38;20.30;;;17.10;;
23588;SDS011;11972;48.078;11.876;2023-03-01T14:53:38;21.73;;;18.13;;
23588;SDS011;11972;48.078;11.876;2023-03-01T14:57:42;19.88;;;15.63;;
23588;SDS011;11972;48.078;11.876;2023-03-01T15:01:44;17.10;;;14.85;;
23588;SDS011;11972;48.078;11.876;2023-03-01T15:05:45;18.95;;;16.02;;
23588;SDS011;11972;48.078;11.876;2023-03-01T15:09:45;17.88;;;15.05;;
23588;SDS011;11972;48.078;11.876;2023-03-01T15:13:46;19.17;;;15.48;;
23588;SDS011;11972;48.078;11.876;2023-03-01T15:17:50;17.27;;;15.48;;
23588;SDS011;11972;48.078;11.876;2023-03-01T15:21:55;19.87;;;15.63;;
23588;SDS011;11972;48.078;11.876;2023-03-01T15:25:56;20.23;;;15.18;;
23588;SDS011;11972;48.078;11.876;2023-03-01T15:29:58;18.23;;;15.45;;
23588;SDS011;11972;48.078;11.876;2023-03-01T15:38:29;17.92;;;15.30;;
23588;SDS011;11972;48.078;11.876;2023-03-01T15:46:36;19.27;;;15.60;;
23588;SDS011;11972;48.078;11.876;2023-03-01T15:50:37;18.58;;;15.52;;
23588;SDS011;11972;48.078;11.876;2023-03-01T15:54:40;16.42;;;14.25;;
23588;SDS011;11972;48.078;11.876;2023-03-01T15:58:40;17.15;;;14.40;;
23588;SDS011;11972;48.078;11.876;2023-03-01T16:02:41;19.90;;;13.75;;
23588;SDS011;11972;48.078;11.876;2023-03-01T16:06:43;20.70;;;15.75;;
23588;SDS011;11972;48.078;11.876;2023-03-01T16:10:44;18.80;;;16.63;;
23588;SDS011;11972;48.078;11.876;2023-03-01T16:14:45;19.33;;;16.73;;
23588;SDS011;11972;48.078;11.876;2023-03-01T16:18:46;22.75;;;18.23;;
23588;SDS011;11972;48.078;11.876;2023-03-01T16:22:46;24.02;;;16.35;;
23588;SDS011;11972;48.078;11.876;2023-03-01T16:26:47;20.00;;;17.00;;
23588;SDS011;11972;48.078;11.876;2023-03-01T16:30:47;21.88;;;18.05;;
23588;SDS011;11972;48.078;11.876;2023-03-01T16:34:48;21.48;;;17.63;;
23588;SDS011;11972;48.078;11.876;2023-03-01T16:38:49;25.92;;;19.05;;
23588;SDS011;11972;48.078;11.876;2023-03-01T16:42:51;23.92;;;18.48;;
23588;SDS011;11972;48.078;11.876;2023-03-01T16:46:51;26.83;;;19.48;;
23588;SDS011;11972;48.078;11.876;2023-03-01T16:50:55;26.23;;;19.20;;
23588;SDS011;11972;48.078;11.876;2023-03-01T16:54:56;29.25;;;20.10;;
23588;SDS011;11972;48.078;11.876;2023-03-01T16:58:57;27.42;;;19.98;;
23588;SDS011;11972;48.078;11.876;2023-03-01T17:02:57;29.90;;;20.98;;
23588;SDS011;11972;48.078;11.876;2023-03-01T17:06:57;30.55;;;21.17;;
23588;SDS011;11972;48.078;11.876;2023-03-01T17:11:08;30.83;;;22.15;;
23588;SDS011;11972;48.078;11.876;2023-03-01T17:15:11;32.03;;;21.27;;
23588;SDS011;11972;48.078;11.876;2023-03-01T17:19:11;30.73;;;21.65;;
23588;SDS011;11972;48.078;11.876;2023-03-01T17:23:17;31.25;;;21.33;;
23588;SDS011;11972;48.078;11.876;2023-03-01T17:27:17;33.08;;;21.52;;
23588;SDS011;11972;48.078;11.876;2023-03-01T17:31:18;29.92;;;21.17;;
23588;SDS011;11972;48.078;11.876;2023-03-01T17:35:19;31.58;;;21.77;;
23588;SDS011;11972;48.078;11.876;2023-03-01T17:39:19;31.63;;;21.65;;
23588;SDS011;11972;48.078;11.876;2023-03-01T17:43:24;29.40;;;20.67;;
23588;SDS011;11972;48.078;11.876;2023-03-01T17:47:25;33.95;;;22.38;;
23588;SDS011;11972;48.078;11.876;2023-03-01T17:51:25;27.98;;;20.40;;
23588;SDS011;11972;48.078;11.876;2023-03-01T17:55:25;44.63;;;27.08;;
23588;SDS011;11972;48.078;11.876;2023-03-01T17:59:26;44.92;;;27.77;;
23588;SDS011;11972;48.078;11.876;2023-03-01T18:03:32;42.55;;;24.70;;
23588;SDS011;11972;48.078;11.876;2023-03-01T18:07:32;37.83;;;23.73;;
23588;SDS011;11972;48.078;11.876;2023-03-01T18:11:33;32.63;;;21.23;;
23588;SDS011;11972;48.078;11.876;2023-03-01T18:15:35;34.60;;;22.75;;
23588;SDS011;11972;48.078;11.876;2023-03-01T18:19:39;47.95;;;27.17;;
23588;SDS011;11972;48.078;11.876;2023-03-01T18:23:40;44.92;;;26.85;;
23588;SDS011;11972;48.078;11.876;2023-03-01T18:27:40;43.67;;;25.77;;
23588;SDS011;11972;48.078;11.876;2023-03-01T18:31:41;37.95;;;24.73;;
23588;SDS011;11972;48.078;11.876;2023-03-01T18:35:41;36.05;;;23.60;;
23588;SDS011;11972;48.078;11.876;2023-03-01T18:39:41;37.92;;;23.73;;
23588;SDS011;11972;48.078;11.876;2023-03-01T18:43:42;35.60;;;23.55;;
23588;SDS011;11972;48.078;11.876;2023-03-01T18:47:42;37.47;;;23.92;;
23588;SDS011;11972;48.078;11.876;2023-03-01T18:51:43;37.70;;;24.60;;
23588;SDS011;11972;48.078;11.876;2023-03-01T18:55:43;38.80;;;24.60;;
23588;SDS011;11972;48.078;11.876;2023-03-01T18:59:44;38.53;;;23.58;;
23588;SDS011;11972;48.078;11.876;2023-03-01T19:03:44;39.85;;;24.92;;
23588;SDS011;11972;48.078;11.876;2023-03-01T19:07:45;87.70;;;48.75;;
23588;SDS011;11972;48.078;11.876;2023-03-01T19:11:45;54.90;;;33.17;;
23588;SDS011;11972;48.078;11.876;2023-03-01T19:15:46;73.10;;;40.65;;
23588;SDS011;11972;48.078;11.876;2023-03-01T19:19:46;51.35;;;30.30;;
23588;SDS011;11972;48.078;11.876;2023-03-01T19:23:48;44.38;;;27.85;;
23588;SDS011;11972;48.078;11.876;2023-03-01T19:27:49;49.67;;;30.20;;
23588;SDS011;11972;48.078;11.876;2023-03-01T19:31:49;45.83;;;28.67;;
23588;SDS011;11972;48.078;11.876;2023-03-01T19:35:50;43.63;;;27.98;;
23588;SDS011;11972;48.078;11.876;2023-03-01T19:39:50;41.55;;;26.25;;
23588;SDS011;11972;48.078;11.876;2023-03-01T19:43:50;45.25;;;29.08;;
23588;SDS011;11972;48.078;11.876;2023-03-01T19:47:51;54.92;;;31.63;;
23588;SDS011;11972;48.078;11.876;2023-03-01T19:51:52;48.53;;;29.23;;
23588;SDS011;11972;48.078;11.876;2023-03-01T19:55:56;50.47;;;29.42;;
23588;SDS011;11972;48.078;11.876;2023-03-01T19:59:58;47.60;;;28.70;;
23588;SDS011;11972;48.078;11.876;2023-03-01T20:03:59;49.47;;;30.33;;
23588;SDS011;11972;48.078;11.876;2023-03-01T20:08:00;46.88;;;28.45;;
23588;SDS011;11972;48.078;11.876;2023-03-01T20:12:01;47.28;;;30.02;;
23588;SDS011;11972;48.078;11.876;2023-03-01T20:16:03;55.40;;;34.53;;
23588;SDS011;11972;48.078;11.876;2023-03-01T20:20:04;48.40;;;30.23;;
23588;SDS011;11972;48.078;11.876;2023-03-01T20:24:05;43.03;;;25.38;;
23588;SDS011;11972;48.078;11.876;2023-03-01T20:28:05;44.13;;;24.63;;
23588;SDS011;11972;48.078;11.876;2023-03-01T20:32:06;40.95;;;24.25;;
23588;SDS011;11972;48.078;11.876;2023-03-01T20:36:07;43.60;;;25.65;;
23588;SDS011;11972;48.078;11.876;2023-03-01T20:40:08;42.45;;;25.65;;
23588;SDS011;11972;48.078;11.876;2023-03-01T20:44:09;36.95;;;23.90;;
23588;SDS011;11972;48.078;11.876;2023-03-01T20:48:10;40.55;;;25.67;;
23588;SDS011;11972;48.078;11.876;2023-03-01T20:52:10;41.72;;;25.50;;
23588;SDS011;11972;48.078;11.876;2023-03-01T20:56:12;43.10;;;26.73;;
23588;SDS011;11972;48.078;11.876;2023-03-01T21:00:14;44.78;;;25.90;;
23588;SDS011;11972;48.078;11.876;2023-03-01T21:04:14;41.72;;;25.00;;
23588;SDS011;11972;48.078;11.876;2023-03-01T21:08:17;40.72;;;24.58;;
23588;SDS011;11972;48.078;11.876;2023-03-01T21:12:18;41.67;;;24.80;;
23588;SDS011;11972;48.078;11.876;2023-03-01T21:16:18;41.75;;;25.08;;
23588;SDS011;11972;48.078;11.876;2023-03-01T21:20:19;42.38;;;25.00;;
23588;SDS011;11972;48.078;11.876;2023-03-01T21:24:20;38.20;;;23.38;;
23588;SDS011;11972;48.078;11.876;2023-03-01T21:28:20;37.75;;;23.52;;
23588;SDS011;11972;48.078;11.876;2023-03-01T21:32:20;39.90;;;22.48;;
23588;SDS011;11972;48.078;11.876;2023-03-01T21:36:21;35.40;;;20.98;;
23588;SDS011;11972;48.078;11.876;2023-03-01T21:40:23;40.95;;;22.55;;
23588;SDS011;11972;48.078;11.876;2023-03-01T21:44:24;32.00;;;20.95;;
23588;SDS011;11972;48.078;11.876;2023-03-01T21:48:25;29.45;;;18.27;;
23588;SDS011;11972;48.078;11.876;2023-03-01T21:52:26;32.00;;;20.38;;
23588;SDS011;11972;48.078;11.876;2023-03-01T21:56:27;31.13;;;18.73;;
23588;SDS011;11972;48.078;11.876;2023-03-01T22:00:30;31.67;;;18.30;;
23588;SDS011;11972;48.078;11.876;2023-03-01T22:04:31;31.63;;;18.05;;
23588;SDS011;11972;48.078;11.876;2023-03-01T22:08:31;29.35;;;18.38;;
23588;SDS011;11972;48.078;11.876;2023-03-01T22:12:32;29.35;;;17.90;;
23588;SDS011;11972;48.078;11.876;2023-03-01T22:16:33;28.20;;;17.55;;
23588;SDS011;11972;48.078;11.876;2023-03-01T22:20:35;27.13;;;17.17;;
23588;SDS011;11972;48.078;11.876;2023-03-01T22:24:36;29.38;;;16.98;;
23588;SDS011;11972;48.078;11.876;2023-03-01T22:28:37;28.85;;;17.90;;
23588;SDS011;11972;48.078;11.876;2023-03-01T22:32:37;26.17;;;16.75;;
23588;SDS011;11972;48.078;11.876;2023-03-01T22:36:37;31.40;;;18.10;;
23588;SDS011;11972;48.078;11.876;2023-03-01T22:40:40;28.73;;;16.88;;
23588;SDS011;11972;48.078;11.876;2023-03-01T22:44:41;27.60;;;16.75;;
23588;SDS011;11972;48.078;11.876;2023-03-01T22:48:41;25.45;;;16.02;;
23588;SDS011;11972;48.078;11.876;2023-03-01T22:52:41;23.92;;;16.98;;
23588;SDS011;11972;48.078;11.876;2023-03-01T22:56:42;25.83;;;16.63;;
23588;SDS011;11972;48.078;11.876;2023-03-01T23:00:42;27.80;;;17.50;;
23588;SDS011;11972;48.078;11.876;2023-03-01T23:04:43;28.50;;;17.95;;
23588;SDS011;11972;48.078;11.876;2023-03-01T23:08:53;26.50;;;16.58;;
23588;SDS011;11972;48.078;11.876;2023-03-01T23:12:55;29.27;;;17.30;;
23588;SDS011;11972;48.078;11.876;2023-03-01T23:16:56;28.05;;;17.55;;
23588;SDS011;11972;48.078;11.876;2023-03-01T23:20:56;27.40;;;17.33;;
23588;SDS011;11972;48.078;11.876;2023-03-01T23:24:56;27.60;;;17.35;;
23588;SDS011;11972;48.078;11.876;2023-03-01T23:28:56;26.50;;;17.52;;
23588;SDS011;11972;48.078;11.876;2023-03-01T23:32:57;26.65;;;17.10;;
23588;SDS011;11972;48.078;11.876;2023-03-01T23:36:59;26.63;;;16.88;;
23588;SDS011;11972;48.078;11.876;2023-03-01T23:40:59;24.85;;;16.83;;
23588;SDS011;11972;48.078;11.876;2023-03-01T23:44:59;29.83;;;17.92;;
23588;SDS011;11972;48.078;11.876;2023-03-01T23:49:00;29.20;;;18.08;;
23588;SDS011;11972;48.078;11.876;2023-03-01T23:53:01;27.55;;;16.80;;
23588;SDS011;11972;48.078;11.876;2023-03-01T23:57:02;27.17;;;16.50;;
